sensor_id;sensor_type;location;lat;lon;timestamp;pressure;altitude;pressure_sealevel;temperature;humidity
23677;BME280;31493;49.058;12.190;2023-03-20T00:00:22;96168.41;;;7.33;100.00
23677;BME280;31493;49.058;12.190;2023-03-20T00:02:50;96162.66;;;7.28;100.00
23677;BME280;31493;49.058;12.190;2023-03-20T00:05:18;96172.97;;;7.28;100.00
23677;BME280;31493;49.058;12.190;2023-03-20T00:07:47;96166.41;;;7.22;100.00
23677;BME280;31493;49.058;12.190;2023-03-20T00:10:16;96169.81;;;7.23;100.00
23677;BME280;31493;49.058;12.190;2023-03-20T00:12:45;96168.22;;;7.36;100.00
23677;BME280;31493;49.058;12.190;2023-03-20T00:15:23;96176.44;;;7.11;100.00
23677;BME280;31493;49.058;12.190;2023-03-20T00:17:50;96181.06;;;7.05;100.00
23677;BME280;31493;49.058;12.190;2023-03-20T00:20:18;96171.19;;;6.97;100.00
23677;BME280;31493;49.058;12.190;2023-03-20T00:22:45;96174.03;;;7.08;100.00
23677;BME280;31493;49.058;12.190;2023-03-20T00:25:13;96168.66;;;7.28;100.00
23677;BME280;31493;49.058;12.190;2023-03-20T00:27:41;96168.25;;;7.20;100.00
23677;BME280;31493;49.058;12.190;2023-03-20T00:30:21;96170.13;;;7.01;100.00
23677;BME280;31493;49.058;12.190;2023-03-20T00:32:49;96174.16;;;6.89;100.00
23677;BME280;31493;49.058;12.190;2023-03-20T00:35:20;96185.81;;;6.79;100.00
23677;BME280;31493;49.058;12.190;2023-03-20T00:37:48;96176.50;;;6.94;100.00
23677;BME280;31493;49.058;12.190;2023-03-20T00:40:15;96182.41;;;6.79;100.00
23677;BME280;31493;49.058;12.190;2023-03-20T00:42:43;96186.88;;;6.75;100.00
23677;BME280;31493;49.058;12.190;2023-03-20T00:45:13;96179.97;;;6.93;100.00
23677;BME280;31493;49.058;12.190;2023-03-20T00:47:43;96182.34;;;6.80;100.00
23677;BME280;31493;49.058;12.190;2023-03-20T00:50:16;96196.72;;;6.84;100.00
23677;BME280;31493;49.058;12.190;2023-03-20T00:52:43;96196.59;;;6.70;100.00
23677;BME280;31493;49.058;12.190;2023-03-20T00:55:11;96187.47;;;6.80;100.00
23677;BME280;31493;49.058;12.190;2023-03-20T00:57:42;96183.53;;;6.90;100.00
23677;BME280;31493;49.058;12.190;2023-03-20T01:00:19;96193.41;;;6.82;100.00
23677;BME280;31493;49.058;12.190;2023-03-20T01:02:48;96182.72;;;6.72;100.00
23677;BME280;31493;49.058;12.190;2023-03-20T01:05:15;96185.00;;;6.79;100.00
23677;BME280;31493;49.058;12.190;2023-03-20T01:07:42;96182.81;;;6.71;100.00
23677;BME280;31493;49.058;12.190;2023-03-20T01:10:11;96184.38;;;6.73;100.00
23677;BME280;31493;49.058;12.190;2023-03-20T01:12:38;96176.75;;;6.72;100.00
23677;BME280;31493;49.058;12.190;2023-03-20T01:15:15;96191.72;;;6.81;100.00
23677;BME280;31493;49.058;12.190;2023-03-20T01:17:43;96180.75;;;6.78;100.00
23677;BME280;31493;49.058;12.190;2023-03-20T01:20:16;96191.66;;;6.83;100.00
23677;BME280;31493;49.058;12.190;2023-03-20T01:22:44;96180.75;;;6.78;100.00
23677;BME280;31493;49.058;12.190;2023-03-20T01:25:12;96180.91;;;6.74;100.00
23677;BME280;31493;49.058;12.190;2023-03-20T01:27:39;96177.03;;;6.83;100.00
23677;BME280;31493;49.058;12.190;2023-03-20T01:30:18;96168.31;;;6.86;100.00
23677;BME280;31493;49.058;12.190;2023-03-20T01:32:46;96165.81;;;6.51;100.00
23677;BME280;31493;49.058;12.190;2023-03-20T01:35:16;96177.19;;;6.80;100.00
23677;BME280;31493;49.058;12.190;2023-03-20T01:37:44;96176.75;;;6.72;100.00
23677;BME280;31493;49.058;12.190;2023-03-20T01:40:30;96179.56;;;6.67;100.00
23677;BME280;31493;49.058;12.190;2023-03-20T01:42:58;96183.88;;;6.67;100.00
23677;BME280;31493;49.058;12.190;2023-03-20T01:45:30;96187.88;;;6.72;100.00
23677;BME280;31493;49.058;12.190;2023-03-20T01:48:01;96192.63;;;6.80;100.00
23677;BME280;31493;49.058;12.190;2023-03-20T01:50:31;96188.16;;;6.84;100.00
23677;BME280;31493;49.058;12.190;2023-03-20T01:53:08;96184.38;;;6.91;100.00
23677;BME280;31493;49.058;12.190;2023-03-20T01:55:37;96181.34;;;7.00;100.00
23677;BME280;31493;49.058;12.190;2023-03-20T01:58:06;96169.75;;;6.91;100.00
23677;BME280;31493;49.058;12.190;2023-03-20T02:00:34;96184.41;;;6.56;100.00
23677;BME280;31493;49.058;12.190;2023-03-20T02:03:05;96182.91;;;6.52;100.00
23677;BME280;31493;49.058;12.190;2023-03-20T02:05:34;96174.91;;;6.41;100.00
23677;BME280;31493;49.058;12.190;2023-03-20T02:08:11;96176.78;;;6.37;100.00
23677;BME280;31493;49.058;12.190;2023-03-20T02:10:40;96189.03;;;6.32;100.00
23677;BME280;31493;49.058;12.190;2023-03-20T02:13:08;96169.53;;;6.28;100.00
23677;BME280;31493;49.058;12.190;2023-03-20T02:15:53;96180.47;;;6.32;100.00
23677;BME280;31493;49.058;12.190;2023-03-20T02:18:21;96182.22;;;6.14;100.00
23677;BME280;31493;49.058;12.190;2023-03-20T02:26:57;96171.78;;;6.52;100.00
23677;BME280;31493;49.058;12.190;2023-03-20T02:33:05;96176.66;;;6.73;100.00
23677;BME280;31493;49.058;12.190;2023-03-20T02:38:56;96177.66;;;6.71;100.00
23677;BME280;31493;49.058;12.190;2023-03-20T02:41:29;96184.03;;;6.64;100.00
23677;BME280;31493;49.058;12.190;2023-03-20T02:44:02;96184.41;;;6.56;100.00
23677;BME280;31493;49.058;12.190;2023-03-20T02:46:41;96185.00;;;6.61;100.00
23677;BME280;31493;49.058;12.190;2023-03-20T02:49:17;96180.97;;;6.73;100.00
23677;BME280;31493;49.058;12.190;2023-03-20T02:51:53;96184.69;;;6.67;100.00
23677;BME280;31493;49.058;12.190;2023-03-20T02:54:27;96176.56;;;6.42;100.00
23677;BME280;31493;49.058;12.190;2023-03-20T02:57:00;96194.31;;;6.29;100.00
23677;BME280;31493;49.058;12.190;2023-03-20T02:59:34;96197.50;;;6.34;100.00
23677;BME280;31493;49.058;12.190;2023-03-20T03:02:05;96183.97;;;6.48;100.00
23677;BME280;31493;49.058;12.190;2023-03-20T03:04:35;96194.13;;;6.51;100.00
23677;BME280;31493;49.058;12.190;2023-03-20T03:07:05;96204.22;;;6.37;100.00
23677;BME280;31493;49.058;12.190;2023-03-20T03:09:40;96207.25;;;6.28;100.00
23677;BME280;31493;49.058;12.190;2023-03-20T03:12:13;96206.44;;;6.27;100.00
23677;BME280;31493;49.058;12.190;2023-03-20T03:14:44;96210.25;;;6.18;100.00
23677;BME280;31493;49.058;12.190;2023-03-20T03:17:13;96198.03;;;6.24;100.00
23677;BME280;31493;49.058;12.190;2023-03-20T03:19:44;96208.91;;;6.29;100.00
23677;BME280;31493;49.058;12.190;2023-03-20T03:22:13;96214.16;;;6.27;100.00
23677;BME280;31493;49.058;12.190;2023-03-20T03:24:44;96203.69;;;6.30;100.00
23677;BME280;31493;49.058;12.190;2023-03-20T03:27:17;96205.75;;;6.41;100.00
23677;BME280;31493;49.058;12.190;2023-03-20T03:29:49;96198.25;;;6.36;100.00
23677;BME280;31493;49.058;12.190;2023-03-20T03:32:22;96191.69;;;5.95;100.00
23677;BME280;31493;49.058;12.190;2023-03-20T03:34:51;96203.44;;;5.81;100.00
23677;BME280;31493;49.058;12.190;2023-03-20T03:37:24;96200.56;;;6.06;100.00
23677;BME280;31493;49.058;12.190;2023-03-20T03:40:03;96203.91;;;6.26;100.00
23677;BME280;31493;49.058;12.190;2023-03-20T03:42:36;96201.66;;;6.37;100.00
23677;BME280;31493;49.058;12.190;2023-03-20T03:45:09;96196.69;;;6.34;100.00
23677;BME280;31493;49.058;12.190;2023-03-20T03:47:40;96200.38;;;6.45;100.00
23677;BME280;31493;49.058;12.190;2023-03-20T03:50:14;96204.75;;;6.43;100.00
23677;BME280;31493;49.058;12.190;2023-03-20T03:52:43;96211.81;;;6.40;100.00
23677;BME280;31493;49.058;12.190;2023-03-20T03:55:16;96203.84;;;6.27;100.00
23677;BME280;31493;49.058;12.190;2023-03-20T03:57:49;96219.75;;;6.53;100.00
23677;BME280;31493;49.058;12.190;2023-03-20T04:00:20;96220.28;;;6.59;100.00
23677;BME280;31493;49.058;12.190;2023-03-20T04:02:52;96223.59;;;6.44;100.00
23677;BME280;31493;49.058;12.190;2023-03-20T04:05:20;96235.84;;;6.22;100.00
23677;BME280;31493;49.058;12.190;2023-03-20T04:07:53;96223.13;;;6.36;100.00
23677;BME280;31493;49.058;12.190;2023-03-20T04:10:22;96228.06;;;6.40;100.00
23677;BME280;31493;49.058;12.190;2023-03-20T04:12:49;96236.91;;;6.35;100.00
23677;BME280;31493;49.058;12.190;2023-03-20T04:15:17;96232.88;;;6.29;100.00
23677;BME280;31493;49.058;12.190;2023-03-20T04:17:45;96229.09;;;6.36;100.00
23677;BME280;31493;49.058;12.190;2023-03-20T04:20:12;96225.50;;;6.40;100.00
23677;BME280;31493;49.058;12.190;2023-03-20T04:22:40;96223.88;;;6.38;100.00
23677;BME280;31493;49.058;12.190;2023-03-20T04:25:13;96217.22;;;6.16;100.00
23677;BME280;31493;49.058;12.190;2023-03-20T04:27:43;96228.66;;;6.28;100.00
23677;BME280;31493;49.058;12.190;2023-03-20T04:30:11;96232.75;;;6.32;100.00
23677;BME280;31493;49.058;12.190;2023-03-20T04:32:38;96249.06;;;6.14;100.00
23677;BME280;31493;49.058;12.190;2023-03-20T04:35:06;96247.69;;;6.24;100.00
23677;BME280;31493;49.058;12.190;2023-03-20T04:37:33;96246.16;;;6.39;100.00
23677;BME280;31493;49.058;12.190;2023-03-20T04:40:00;96238.47;;;6.37;100.00
23677;BME280;31493;49.058;12.190;2023-03-20T04:42:28;96233.53;;;6.52;100.00
23677;BME280;31493;49.058;12.190;2023-03-20T04:44:56;96235.84;;;6.56;100.00
23677;BME280;31493;49.058;12.190;2023-03-20T04:47:23;96231.78;;;6.52;100.00
23677;BME280;31493;49.058;12.190;2023-03-20T04:49:50;96240.09;;;6.57;100.00
23677;BME280;31493;49.058;12.190;2023-03-20T04:52:17;96234.34;;;6.52;100.00
23677;BME280;31493;49.058;12.190;2023-03-20T04:54:44;96242.28;;;6.47;100.00
23677;BME280;31493;49.058;12.190;2023-03-20T04:57:11;96244.38;;;6.57;100.00
23677;BME280;31493;49.058;12.190;2023-03-20T04:59:38;96235.72;;;6.59;100.00
23677;BME280;31493;49.058;12.190;2023-03-20T05:02:07;96240.09;;;6.57;100.00
23677;BME280;31493;49.058;12.190;2023-03-20T05:04:34;96251.44;;;6.53;100.00
23677;BME280;31493;49.058;12.190;2023-03-20T05:07:01;96253.31;;;6.50;100.00
23677;BME280;31493;49.058;12.190;2023-03-20T05:09:28;96247.66;;;6.60;100.00
23677;BME280;31493;49.058;12.190;2023-03-20T05:11:55;96241.16;;;6.70;100.00
23677;BME280;31493;49.058;12.190;2023-03-20T05:14:22;96242.97;;;6.68;100.00
23677;BME280;31493;49.058;12.190;2023-03-20T05:16:49;96243.03;;;6.67;100.00
23677;BME280;31493;49.058;12.190;2023-03-20T05:19:18;96248.50;;;6.78;100.00
23677;BME280;31493;49.058;12.190;2023-03-20T05:21:45;96246.53;;;6.83;100.00
23677;BME280;31493;49.058;12.190;2023-03-20T05:24:13;96234.63;;;6.81;100.00
23677;BME280;31493;49.058;12.190;2023-03-20T05:26:40;96241.22;;;6.86;100.00
23677;BME280;31493;49.058;12.190;2023-03-20T05:29:07;96240.28;;;6.87;100.00
23677;BME280;31493;49.058;12.190;2023-03-20T05:31:34;96240.53;;;6.83;100.00
23677;BME280;31493;49.058;12.190;2023-03-20T05:34:01;96235.59;;;6.95;100.00
23677;BME280;31493;49.058;12.190;2023-03-20T05:36:30;96242.63;;;6.92;100.00
23677;BME280;31493;49.058;12.190;2023-03-20T05:38:57;96255.97;;;6.83;100.00
23677;BME280;31493;49.058;12.190;2023-03-20T05:41:24;96258.09;;;6.74;100.00
23677;BME280;31493;49.058;12.190;2023-03-20T05:43:51;96272.41;;;6.80;100.00
23677;BME280;31493;49.058;12.190;2023-03-20T05:46:18;96275.56;;;6.68;100.00
23677;BME280;31493;49.058;12.190;2023-03-20T05:48:45;96281.09;;;6.60;100.00
23677;BME280;31493;49.058;12.190;2023-03-20T05:51:12;96276.78;;;6.61;100.00
23677;BME280;31493;49.058;12.190;2023-03-20T05:53:41;96283.75;;;6.59;100.00
23677;BME280;31493;49.058;12.190;2023-03-20T05:56:08;96282.84;;;6.60;100.00
23677;BME280;31493;49.058;12.190;2023-03-20T05:58:35;96271.56;;;6.62;100.00
23677;BME280;31493;49.058;12.190;2023-03-20T06:01:02;96283.25;;;6.69;100.00
23677;BME280;31493;49.058;12.190;2023-03-20T06:03:29;96276.41;;;6.86;100.00
23677;BME280;31493;49.058;12.190;2023-03-20T06:05:56;96278.16;;;6.85;100.00
23677;BME280;31493;49.058;12.190;2023-03-20T06:08:23;96279.66;;;6.89;100.00
23677;BME280;31493;49.058;12.190;2023-03-20T06:10:52;96268.91;;;6.98;100.00
23677;BME280;31493;49.058;12.190;2023-03-20T06:13:19;96288.13;;;6.91;100.00
23677;BME280;31493;49.058;12.190;2023-03-20T06:15:46;96287.63;;;6.85;100.00
23677;BME280;31493;49.058;12.190;2023-03-20T06:18:13;96296.16;;;6.85;100.00
23677;BME280;31493;49.058;12.190;2023-03-20T06:20:40;96302.44;;;6.80;100.00
23677;BME280;31493;49.058;12.190;2023-03-20T06:23:07;96303.34;;;6.79;100.00
23677;BME280;31493;49.058;12.190;2023-03-20T06:25:34;96304.50;;;6.73;100.00
23677;BME280;31493;49.058;12.190;2023-03-20T06:28:03;96313.81;;;6.76;100.00
23677;BME280;31493;49.058;12.190;2023-03-20T06:30:30;96316.91;;;6.82;100.00
23677;BME280;31493;49.058;12.190;2023-03-20T06:32:57;96308.59;;;6.77;100.00
23677;BME280;31493;49.058;12.190;2023-03-20T06:35:24;96318.78;;;6.79;100.00
23677;BME280;31493;49.058;12.190;2023-03-20T06:37:55;96311.69;;;6.84;100.00
23677;BME280;31493;49.058;12.190;2023-03-20T06:40:23;96313.25;;;6.86;100.00
23677;BME280;31493;49.058;12.190;2023-03-20T06:42:52;96314.72;;;6.92;100.00
23677;BME280;31493;49.058;12.190;2023-03-20T06:45:21;96311.69;;;7.01;100.00
23677;BME280;31493;49.058;12.190;2023-03-20T06:47:48;96303.81;;;7.04;100.00
23677;BME280;31493;49.058;12.190;2023-03-20T06:50:15;96302.75;;;7.08;100.00
23677;BME280;31493;49.058;12.190;2023-03-20T06:52:42;96303.28;;;7.15;100.00
23677;BME280;31493;49.058;12.190;2023-03-20T06:55:09;96307.94;;;7.24;100.00
23677;BME280;31493;49.058;12.190;2023-03-20T06:57:37;96311.38;;;7.24;100.00
23677;BME280;31493;49.058;12.190;2023-03-20T07:00:05;96309.94;;;7.19;100.00
23677;BME280;31493;49.058;12.190;2023-03-20T07:02:34;96318.84;;;7.12;100.00
23677;BME280;31493;49.058;12.190;2023-03-20T07:05:01;96315.41;;;7.13;100.00
23677;BME280;31493;49.058;12.190;2023-03-20T07:07:28;96311.69;;;7.18;100.00
23677;BME280;31493;49.058;12.190;2023-03-20T07:09:55;96315.00;;;7.20;100.00
23677;BME280;31493;49.058;12.190;2023-03-20T07:12:23;96309.47;;;7.28;100.00
23677;BME280;31493;49.058;12.190;2023-03-20T07:14:53;96316.72;;;7.37;100.00
23677;BME280;31493;49.058;12.190;2023-03-20T07:17:20;96311.31;;;7.42;100.00
23677;BME280;31493;49.058;12.190;2023-03-20T07:19:49;96321.25;;;7.49;100.00
23677;BME280;31493;49.058;12.190;2023-03-20T07:22:20;96326.84;;;7.58;100.00
23677;BME280;31493;49.058;12.190;2023-03-20T07:24:48;96334.66;;;7.56;100.00
23677;BME280;31493;49.058;12.190;2023-03-20T07:27:15;96336.97;;;7.61;100.00
23677;BME280;31493;49.058;12.190;2023-03-20T07:29:43;96334.47;;;7.59;100.00
23677;BME280;31493;49.058;12.190;2023-03-20T07:32:10;96348.97;;;7.62;100.00
23677;BME280;31493;49.058;12.190;2023-03-20T07:34:37;96334.31;;;7.62;100.00
23677;BME280;31493;49.058;12.190;2023-03-20T07:37:05;96337.72;;;7.63;100.00
23677;BME280;31493;49.058;12.190;2023-03-20T07:39:33;96340.97;;;7.66;100.00
23677;BME280;31493;49.058;12.190;2023-03-20T07:42:00;96351.56;;;7.77;100.00
23677;BME280;31493;49.058;12.190;2023-03-20T07:44:27;96340.66;;;7.72;100.00
23677;BME280;31493;49.058;12.190;2023-03-20T07:46:54;96350.06;;;7.73;100.00
23677;BME280;31493;49.058;12.190;2023-03-20T07:49:21;96355.88;;;7.77;100.00
23677;BME280;31493;49.058;12.190;2023-03-20T07:51:48;96348.09;;;7.94;100.00
23677;BME280;31493;49.058;12.190;2023-03-20T07:54:17;96344.38;;;8.00;100.00
23677;BME280;31493;49.058;12.190;2023-03-20T07:56:44;96349.34;;;8.03;100.00
23677;BME280;31493;49.058;12.190;2023-03-20T07:59:11;96349.09;;;8.07;100.00
23677;BME280;31493;49.058;12.190;2023-03-20T08:01:39;96359.69;;;8.19;100.00
23677;BME280;31493;49.058;12.190;2023-03-20T08:04:06;96351.22;;;8.17;100.00
23677;BME280;31493;49.058;12.190;2023-03-20T08:06:33;96349.19;;;8.22;100.00
23677;BME280;31493;49.058;12.190;2023-03-20T08:09:00;96355.50;;;8.16;100.00
23677;BME280;31493;49.058;12.190;2023-03-20T08:11:28;96354.94;;;8.27;100.00
23677;BME280;31493;49.058;12.190;2023-03-20T08:13:55;96354.63;;;8.17;100.00
23677;BME280;31493;49.058;12.190;2023-03-20T08:16:22;96340.97;;;8.31;100.00
23677;BME280;31493;49.058;12.190;2023-03-20T08:18:50;96343.38;;;8.34;100.00
23677;BME280;31493;49.058;12.190;2023-03-20T08:21:17;96337.66;;;8.45;100.00
23677;BME280;31493;49.058;12.190;2023-03-20T08:23:44;96347.22;;;8.58;100.00
23677;BME280;31493;49.058;12.190;2023-03-20T08:26:11;96345.63;;;8.56;100.00
23677;BME280;31493;49.058;12.190;2023-03-20T08:28:40;96354.88;;;8.60;100.00
23677;BME280;31493;49.058;12.190;2023-03-20T08:31:07;96345.72;;;8.54;100.00
23677;BME280;31493;49.058;12.190;2023-03-20T08:33:34;96341.16;;;8.59;100.00
23677;BME280;31493;49.058;12.190;2023-03-20T08:36:02;96334.44;;;8.71;100.00
23677;BME280;31493;49.058;12.190;2023-03-20T08:38:29;96341.44;;;8.85;100.00
23677;BME280;31493;49.058;12.190;2023-03-20T08:40:56;96335.16;;;8.89;100.00
23677;BME280;31493;49.058;12.190;2023-03-20T08:43:23;96343.81;;;9.04;100.00
23677;BME280;31493;49.058;12.190;2023-03-20T08:45:51;96343.44;;;9.10;100.00
23677;BME280;31493;49.058;12.190;2023-03-20T08:48:19;96344.19;;;9.12;100.00
23677;BME280;31493;49.058;12.190;2023-03-20T08:50:46;96346.63;;;9.29;100.00
23677;BME280;31493;49.058;12.190;2023-03-20T08:53:13;96346.91;;;9.39;100.00
23677;BME280;31493;49.058;12.190;2023-03-20T08:55:40;96339.34;;;9.36;100.00
23677;BME280;31493;49.058;12.190;2023-03-20T08:58:12;96351.59;;;9.32;100.00
23677;BME280;31493;49.058;12.190;2023-03-20T09:00:39;96342.59;;;9.39;100.00
23677;BME280;31493;49.058;12.190;2023-03-20T09:03:11;96343.16;;;9.73;100.00
23677;BME280;31493;49.058;12.190;2023-03-20T09:05:39;96342.97;;;9.90;100.00
23677;BME280;31493;49.058;12.190;2023-03-20T09:08:06;96343.59;;;9.94;100.00
23677;BME280;31493;49.058;12.190;2023-03-20T09:10:33;96342.03;;;10.20;100.00
23677;BME280;31493;49.058;12.190;2023-03-20T09:13:01;96337.50;;;10.09;100.00
23677;BME280;31493;49.058;12.190;2023-03-20T09:15:28;96343.78;;;10.19;100.00
23677;BME280;31493;49.058;12.190;2023-03-20T09:17:55;96351.25;;;10.38;100.00
23677;BME280;31493;49.058;12.190;2023-03-20T09:20:23;96348.38;;;10.70;100.00
23677;BME280;31493;49.058;12.190;2023-03-20T09:22:50;96351.47;;;10.07;100.00
23677;BME280;31493;49.058;12.190;2023-03-20T09:25:17;96350.94;;;10.43;100.00
23677;BME280;31493;49.058;12.190;2023-03-20T09:27:44;96354.59;;;10.94;100.00
23677;BME280;31493;49.058;12.190;2023-03-20T09:30:12;96353.50;;;10.84;100.00
23677;BME280;31493;49.058;12.190;2023-03-20T09:32:40;96361.72;;;10.64;100.00
23677;BME280;31493;49.058;12.190;2023-03-20T09:35:07;96351.06;;;10.95;100.00
23677;BME280;31493;49.058;12.190;2023-03-20T09:37:36;96368.41;;;11.08;100.00
23677;BME280;31493;49.058;12.190;2023-03-20T09:40:03;96360.31;;;10.99;100.00
23677;BME280;31493;49.058;12.190;2023-03-20T09:42:39;96363.28;;;10.93;100.00
23677;BME280;31493;49.058;12.190;2023-03-20T09:45:11;96369.00;;;10.71;100.00
23677;BME280;31493;49.058;12.190;2023-03-20T09:47:49;96353.97;;;10.64;100.00
23677;BME280;31493;49.058;12.190;2023-03-20T09:50:26;96369.00;;;10.71;100.00
23677;BME280;31493;49.058;12.190;2023-03-20T09:53:02;96361.78;;;10.76;100.00
23677;BME280;31493;49.058;12.190;2023-03-20T09:55:34;96368.22;;;10.57;100.00
23677;BME280;31493;49.058;12.190;2023-03-20T09:58:11;96356.41;;;10.53;100.00
23677;BME280;31493;49.058;12.190;2023-03-20T10:00:39;96356.16;;;10.70;100.00
23677;BME280;31493;49.058;12.190;2023-03-20T10:03:16;96356.66;;;10.62;100.00
23677;BME280;31493;49.058;12.190;2023-03-20T10:05:45;96349.84;;;10.74;100.00
23677;BME280;31493;49.058;12.190;2023-03-20T10:08:18;96352.03;;;10.80;100.00
23677;BME280;31493;49.058;12.190;2023-03-20T10:10:49;96359.75;;;10.94;100.00
23677;BME280;31493;49.058;12.190;2023-03-20T10:13:33;96358.75;;;11.10;100.00
23677;BME280;31493;49.058;12.190;2023-03-20T10:16:12;96358.59;;;11.25;100.00
23677;BME280;31493;49.058;12.190;2023-03-20T10:18:45;96351.44;;;11.29;100.00
23677;BME280;31493;49.058;12.190;2023-03-20T10:21:16;96358.16;;;11.06;100.00
23677;BME280;31493;49.058;12.190;2023-03-20T10:23:54;96349.47;;;11.20;100.00
23677;BME280;31493;49.058;12.190;2023-03-20T10:26:23;96351.66;;;11.39;100.00
23677;BME280;31493;49.058;12.190;2023-03-20T10:28:54;96333.25;;;11.81;100.00
23677;BME280;31493;49.058;12.190;2023-03-20T10:31:37;96335.22;;;12.27;100.00
23677;BME280;31493;49.058;12.190;2023-03-20T10:34:18;96337.53;;;12.19;100.00
23677;BME280;31493;49.058;12.190;2023-03-20T10:36:55;96333.31;;;11.67;100.00
23677;BME280;31493;49.058;12.190;2023-03-20T10:39:36;96340.88;;;11.32;100.00
23677;BME280;31493;49.058;12.190;2023-03-20T10:42:12;96337.41;;;11.06;100.00
23677;BME280;31493;49.058;12.190;2023-03-20T10:44:45;96334.31;;;11.14;100.00
23677;BME280;31493;49.058;12.190;2023-03-20T10:47:17;96317.84;;;11.78;100.00
23677;BME280;31493;49.058;12.190;2023-03-20T10:49:49;96322.56;;;11.86;100.00
23677;BME280;31493;49.058;12.190;2023-03-20T10:52:20;96332.19;;;12.46;100.00
23677;BME280;31493;49.058;12.190;2023-03-20T10:54:53;96332.00;;;12.36;100.00
23677;BME280;31493;49.058;12.190;2023-03-20T10:57:24;96330.84;;;12.41;100.00
23677;BME280;31493;49.058;12.190;2023-03-20T10:59:53;96324.38;;;12.09;100.00
23677;BME280;31493;49.058;12.190;2023-03-20T11:02:24;96326.25;;;11.95;100.00
23677;BME280;31493;49.058;12.190;2023-03-20T11:04:52;96332.41;;;11.81;100.00
23677;BME280;31493;49.058;12.190;2023-03-20T11:07:23;96313.00;;;11.87;100.00
23677;BME280;31493;49.058;12.190;2023-03-20T11:10:12;96312.19;;;11.86;100.00
23677;BME280;31493;49.058;12.190;2023-03-20T11:12:43;96316.94;;;11.79;100.00
23677;BME280;31493;49.058;12.190;2023-03-20T11:15:19;96319.72;;;11.51;100.00
23677;BME280;31493;49.058;12.190;2023-03-20T11:17:52;96329.28;;;11.38;100.00
23677;BME280;31493;49.058;12.190;2023-03-20T11:20:20;96317.97;;;11.39;100.00
23677;BME280;31493;49.058;12.190;2023-03-20T11:22:48;96325.13;;;11.48;100.00
23677;BME280;31493;49.058;12.190;2023-03-20T11:25:31;96318.00;;;12.26;100.00
23677;BME280;31493;49.058;12.190;2023-03-20T11:31:14;96320.31;;;12.18;98.59
23677;BME280;31493;49.058;12.190;2023-03-20T11:33:44;96325.63;;;11.40;99.51
23677;BME280;31493;49.058;12.190;2023-03-20T11:36:19;96313.41;;;11.29;100.00
23677;BME280;31493;49.058;12.190;2023-03-20T11:38:49;96312.63;;;11.02;100.00
23677;BME280;31493;49.058;12.190;2023-03-20T11:41:21;96314.03;;;11.46;100.00
23677;BME280;31493;49.058;12.190;2023-03-20T11:43:49;96307.91;;;11.34;98.94
23677;BME280;31493;49.058;12.190;2023-03-20T11:46:18;96311.94;;;11.51;96.56
23677;BME280;31493;49.058;12.190;2023-03-20T11:48:46;96322.84;;;11.43;96.18
23677;BME280;31493;49.058;12.190;2023-03-20T11:51:15;96306.34;;;11.32;95.76
23677;BME280;31493;49.058;12.190;2023-03-20T11:53:57;96305.81;;;11.26;96.33
23677;BME280;31493;49.058;12.190;2023-03-20T11:56:28;96308.31;;;11.41;98.74
23677;BME280;31493;49.058;12.190;2023-03-20T11:58:58;96296.09;;;11.30;96.18
23677;BME280;31493;49.058;12.190;2023-03-20T12:01:27;96304.88;;;11.27;97.12
23677;BME280;31493;49.058;12.190;2023-03-20T12:04:00;96300.88;;;11.23;96.55
23677;BME280;31493;49.058;12.190;2023-03-20T12:06:41;96299.94;;;11.24;97.25
23677;BME280;31493;49.058;12.190;2023-03-20T12:09:22;96301.47;;;11.27;96.22
23677;BME280;31493;49.058;12.190;2023-03-20T12:11:54;96300.34;;;11.31;98.43
23677;BME280;31493;49.058;12.190;2023-03-20T12:14:28;96293.28;;;11.33;97.58
23677;BME280;31493;49.058;12.190;2023-03-20T12:17:14;96308.00;;;11.33;97.25
23677;BME280;31493;49.058;12.190;2023-03-20T12:19:47;96308.41;;;11.39;97.31
23677;BME280;31493;49.058;12.190;2023-03-20T12:22:20;96301.38;;;11.41;95.44
23677;BME280;31493;49.058;12.190;2023-03-20T12:24:54;96291.00;;;11.41;96.54
23677;BME280;31493;49.058;12.190;2023-03-20T12:27:27;96301.88;;;11.59;97.24
23677;BME280;31493;49.058;12.190;2023-03-20T12:29:59;96281.97;;;11.47;95.91
23677;BME280;31493;49.058;12.190;2023-03-20T12:32:34;96287.06;;;11.48;96.28
23677;BME280;31493;49.058;12.190;2023-03-20T12:35:10;96291.31;;;11.37;97.06
23677;BME280;31493;49.058;12.190;2023-03-20T12:37:39;96285.19;;;11.38;99.72
23677;BME280;31493;49.058;12.190;2023-03-20T12:40:11;96289.16;;;11.30;100.00
23677;BME280;31493;49.058;12.190;2023-03-20T12:42:55;96276.25;;;11.03;100.00
23677;BME280;31493;49.058;12.190;2023-03-20T12:45:28;96298.56;;;10.66;100.00
23677;BME280;31493;49.058;12.190;2023-03-20T12:48:09;96300.72;;;10.60;100.00
23677;BME280;31493;49.058;12.190;2023-03-20T12:50:47;96298.66;;;10.38;100.00
23677;BME280;31493;49.058;12.190;2023-03-20T12:53:26;96295.66;;;10.31;100.00
23677;BME280;31493;49.058;12.190;2023-03-20T12:56:05;96288.91;;;10.14;100.00
23677;BME280;31493;49.058;12.190;2023-03-20T12:58:43;96297.28;;;10.18;100.00
23677;BME280;31493;49.058;12.190;2023-03-20T13:01:14;96291.38;;;10.16;100.00
23677;BME280;31493;49.058;12.190;2023-03-20T13:04:03;96293.25;;;10.28;100.00
23677;BME280;31493;49.058;12.190;2023-03-20T13:06:43;96287.13;;;10.29;100.00
23677;BME280;31493;49.058;12.190;2023-03-20T13:09:43;96292.06;;;10.46;100.00
23677;BME280;31493;49.058;12.190;2023-03-20T13:12:23;96277.56;;;10.44;100.00
23677;BME280;31493;49.058;12.190;2023-03-20T13:15:03;96281.59;;;10.48;100.00
23677;BME280;31493;49.058;12.190;2023-03-20T13:17:44;96280.38;;;10.54;100.00
23677;BME280;31493;49.058;12.190;2023-03-20T13:20:20;96279.88;;;10.61;100.00